Aviation Digital Data Service (ADDS)

Output produced by METARs form (1825 UTC 16 August 2018)
found at http://www.aviationweather.gov/adds/metars/
 
MRLB 161700Z 1618/1718 27007KT 9999 FEW020 TX33/1719Z TN22/1711Z 
     TEMPO 1700/1706 RA BKN100 
     BECMG 1703/1705 09007KT
       
MROC 161700Z 1618/1718 27008KT 9999 FEW030 TX29/1718Z TN19/1710Z 
     TEMPO 1620/1623 5000 SHRA SCT015TCU 
     BECMG 1700/1703 07006KT 
     BECMG 1714/1716 26007KT
       
MRLM 161700Z 1618/1718 03005KT 9999 SCT020 TX30/1719Z TN22/1711Z 
     BECMG 1701/1703 27006KT 
     BECMG 1713/1715 07005KT
       
MRPV 161700Z 1618/1718 29008KT 9999 SCT030 TX29/1717Z TN18/1710Z 
     TEMPO 1619/1622 TSRA FEW015CB 
     TEMPO 1623/1703 VRB02KT 5000 RA BR BKN015 
     BECMG 1703/1705 10008KT